TimeEST,TemperatureF,Dew PointF,Humidity,Sea Level PressureIn,VisibilityMPH,Wind Direction,Wind SpeedMPH,Gust SpeedMPH,PrecipitationIn,Events,Conditions,WindDirDegrees,DateUTC
12:53 AM,34.0,26.1,73,30.37,10.0,NNW,4.6,-,N/A,,Overcast,340,2013-02-09 05:53:00
1:08 AM,33.8,26.6,75,30.36,10.0,North,4.6,-,N/A,,Overcast,350,2013-02-09 06:08:00
1:53 AM,34.0,26.1,73,30.38,10.0,North,3.5,-,N/A,,Overcast,360,2013-02-09 06:53:00
2:53 AM,33.1,26.1,75,30.39,10.0,North,4.6,-,N/A,,Overcast,10,2013-02-09 07:53:00
3:53 AM,32.0,23.0,69,30.39,10.0,Calm,Calm,-,N/A,,Partly Cloudy,0,2013-02-09 08:53:00
4:53 AM,30.0,23.0,75,30.39,10.0,Calm,Calm,-,N/A,,Clear,0,2013-02-09 09:53:00
5:53 AM,28.9,23.0,78,30.39,10.0,NE,3.5,-,N/A,,Clear,50,2013-02-09 10:53:00
6:53 AM,28.0,21.9,78,30.41,10.0,NNE,3.5,-,N/A,,Clear,30,2013-02-09 11:53:00
7:53 AM,27.0,21.9,81,30.43,9.0,North,3.5,-,N/A,,Clear,10,2013-02-09 12:53:00
8:53 AM,30.0,23.0,75,30.43,10.0,East,5.8,-,N/A,,Clear,80,2013-02-09 13:53:00
9:53 AM,33.1,23.0,66,30.42,10.0,East,5.8,-,N/A,,Clear,100,2013-02-09 14:53:00
10:53 AM,36.0,23.0,59,30.42,10.0,ENE,5.8,-,N/A,,Clear,70,2013-02-09 15:53:00
11:53 AM,37.9,24.1,57,30.41,10.0,SE,6.9,-,N/A,,Clear,140,2013-02-09 16:53:00
12:53 PM,39.0,24.1,55,30.39,10.0,East,6.9,-,N/A,,Clear,90,2013-02-09 17:53:00
1:53 PM,43.0,24.1,47,30.35,10.0,East,6.9,-,N/A,,Clear,80,2013-02-09 18:53:00
2:53 PM,45.0,24.1,44,30.32,10.0,ESE,6.9,-,N/A,,Clear,120,2013-02-09 19:53:00
3:53 PM,45.0,23.0,42,30.31,10.0,SE,6.9,-,N/A,,Clear,130,2013-02-09 20:53:00
4:53 PM,46.0,21.9,39,30.29,10.0,ESE,5.8,-,N/A,,Clear,120,2013-02-09 21:53:00
5:53 PM,44.1,23.0,43,30.27,10.0,East,5.8,-,N/A,,Clear,80,2013-02-09 22:53:00
6:53 PM,42.1,23.0,47,30.27,10.0,East,6.9,-,N/A,,Clear,90,2013-02-09 23:53:00
7:53 PM,39.9,21.9,49,30.26,10.0,East,4.6,-,N/A,,Clear,90,2013-02-10 00:53:00
8:53 PM,39.0,21.0,49,30.26,10.0,East,3.5,-,N/A,,Clear,90,2013-02-10 01:53:00
9:53 PM,37.9,21.0,51,30.25,10.0,Calm,Calm,-,N/A,,Clear,0,2013-02-10 02:53:00
10:53 PM,37.9,21.0,51,30.23,10.0,East,4.6,-,N/A,,Clear,90,2013-02-10 03:53:00
11:53 PM,37.9,21.0,51,30.20,10.0,ESE,3.5,-,N/A,,Clear,110,2013-02-10 04:53:00